Time;durP1;ratioP1;P1;durP2;ratioP2;P2;SDS_P1;SDS_P2;PMS_P1;PMS_P2;Temp;Humidity;BMP_temperature;BMP_pressure;BME280_temperature;BME280_humidity;BME280_pressure;Samples;Min_cycle;Max_cycle;Signal;HPM_P1;HPM_P2
2022/04/25 00:01:51;;;;;;;7.70;6.00;;;;;;;9.63;75.58;99285.70;88320;1271;83623;-68
2022/04/25 00:04:03;;;;;;;6.70;5.70;;;;;;;9.65;75.71;99285.08;88249;1273;99559;-68
2022/04/25 00:06:12;;;;;;;6.20;5.40;;;;;;;9.59;75.96;99283.39;88296;1271;89438;-69
2022/04/25 00:08:24;;;;;;;8.00;6.00;;;;;;;9.59;75.82;99287.08;88296;1271;94281;-67
2022/04/25 00:10:36;;;;;;;7.10;5.90;;;;;;;9.63;75.88;99282.34;88277;1271;81363;-66
2022/04/25 00:12:49;;;;;;;8.40;6.70;;;;;;;9.64;76.06;99287.33;88299;1271;81913;-59
2022/04/25 00:15:01;;;;;;;6.90;6.00;;;;;;;9.58;76.24;99282.98;88262;1274;99764;-60
2022/04/25 00:17:10;;;;;;;8.40;6.10;;;;;;;9.62;76.03;99282.43;88339;1271;87973;-60
2022/04/25 00:19:19;;;;;;;7.20;5.60;;;;;;;9.67;76.06;99281.92;88294;1271;93859;-60
2022/04/25 00:21:28;;;;;;;7.10;5.80;;;;;;;9.62;76.08;99279.85;88298;1271;81593;-59
2022/04/25 00:23:37;;;;;;;6.10;5.30;;;;;;;9.59;76.27;99280.27;88264;1274;81165;-60
2022/04/25 00:25:49;;;;;;;6.70;5.80;;;;;;;9.53;76.31;99276.23;88252;1274;100160;-63
2022/04/25 00:27:58;;;;;;;6.80;6.00;;;;;;;9.52;76.42;99275.70;88332;1271;88797;-59
2022/04/25 00:30:12;;;;;;;6.90;5.40;;;;;;;9.53;76.43;99273.95;88253;1273;95503;-59
2022/04/25 00:32:22;;;;;;;6.50;5.50;;;;;;;9.53;76.35;99268.23;88292;1274;80946;-59
2022/04/25 00:34:31;;;;;;;7.10;5.20;;;;;;;9.57;76.40;99269.66;88280;1271;81295;-59
2022/04/25 00:36:40;;;;;;;6.30;5.10;;;;;;;9.59;76.34;99267.66;88182;1275;98718;-66
2022/04/25 00:38:49;;;;;;;7.60;5.30;;;;;;;9.58;76.43;99268.80;88212;1273;87055;-67
2022/04/25 00:40:57;;;;;;;6.20;5.50;;;;;;;9.56;76.42;99271.33;88257;1273;95909;-68
2022/04/25 00:43:07;;;;;;;6.30;5.20;;;;;;;9.57;76.36;99268.38;88273;1273;79692;-67
2022/04/25 00:45:17;;;;;;;6.40;5.60;;;;;;;9.58;76.50;99270.90;88354;1271;80101;-68
2022/04/25 00:47:27;;;;;;;5.80;5.20;;;;;;;9.59;76.48;99270.15;88310;1271;99411;-68
2022/04/25 00:49:36;;;;;;;5.30;4.70;;;;;;;9.60;76.45;99268.26;88251;1271;89700;-68
2022/04/25 00:51:47;;;;;;;6.80;5.70;;;;;;;9.61;76.47;99266.92;88228;1274;95960;-59
2022/04/25 00:53:55;;;;;;;5.80;5.10;;;;;;;9.61;76.50;99269.23;88294;1271;79808;-59
2022/04/25 00:56:10;;;;;;;6.30;4.80;;;;;;;9.60;76.60;99269.05;88342;1271;82624;-59
2022/04/25 00:58:20;;;;;;;6.20;5.60;;;;;;;9.58;76.67;99266.96;88317;1271;97748;-67
2022/04/25 01:00:33;;;;;;;6.00;4.90;;;;;;;9.59;76.62;99267.74;88238;1273;89091;-67
2022/04/25 01:02:43;;;;;;;5.60;4.90;;;;;;;9.60;76.83;99263.69;88338;1271;93928;-59
2022/04/25 01:04:53;;;;;;;6.30;5.40;;;;;;;9.59;76.71;99263.73;88347;1271;80302;-59
2022/04/25 01:07:05;;;;;;;5.90;5.30;;;;;;;9.59;76.59;99263.06;88417;1271;80255;-67
2022/04/25 01:09:17;;;;;;;6.00;5.30;;;;;;;9.59;76.75;99261.73;88406;1271;100242;-66
2022/04/25 01:11:29;;;;;;;6.10;5.50;;;;;;;9.61;76.66;99260.79;88397;1270;89269;-68
2022/04/25 01:13:43;;;;;;;6.40;5.20;;;;;;;9.57;76.75;99259.58;88270;1271;93304;-61
2022/04/25 01:15:55;;;;;;;7.00;5.00;;;;;;;9.54;76.81;99255.85;88417;1271;81481;-59
2022/04/25 01:18:07;;;;;;;6.40;5.70;;;;;;;9.55;76.80;99255.86;88409;1271;80265;-59
2022/04/25 01:20:16;;;;;;;6.20;5.20;;;;;;;9.58;76.79;99250.79;88382;1271;99176;-58
2022/04/25 01:22:32;;;;;;;6.00;4.80;;;;;;;9.59;76.77;99250.80;88429;1271;87406;-67
2022/04/25 01:27:17;;;;;;;6.00;4.70;;;;;;;9.49;76.84;99248.61;88390;1270;81959;-67
2022/04/25 01:29:28;;;;;;;7.20;5.10;;;;;;;9.47;76.95;99244.92;88392;1271;83444;-67
2022/04/25 01:31:37;;;;;;;5.40;4.50;;;;;;;9.48;76.90;99240.65;88422;1271;99122;-60
2022/04/25 01:33:46;;;;;;;5.80;4.60;;;;;;;9.47;76.98;99233.15;88379;1271;86909;-59
2022/04/25 01:35:55;;;;;;;5.70;4.90;;;;;;;9.44;77.12;99228.80;88368;1271;95862;-58
2022/04/25 01:38:06;;;;;;;8.00;5.50;;;;;;;9.42;77.26;99231.59;88425;1271;80339;-59
2022/04/25 01:40:16;;;;;;;6.70;5.40;;;;;;;9.40;77.38;99227.88;88394;1271;81667;-59
2022/04/25 01:42:26;;;;;;;5.80;4.90;;;;;;;9.35;77.38;99232.16;88394;1271;98359;-68
2022/04/25 01:44:35;;;;;;;5.80;5.10;;;;;;;9.33;77.47;99232.26;88412;1271;87630;-68
2022/04/25 01:46:44;;;;;;;5.80;5.20;;;;;;;9.33;77.52;99233.50;88385;1271;91914;-67
2022/04/25 01:48:56;;;;;;;7.00;5.50;;;;;;;9.34;77.48;99230.64;88286;1271;79950;-67
2022/04/25 01:51:06;;;;;;;6.60;5.40;;;;;;;9.35;77.60;99228.81;88330;1271;82475;-67
2022/04/25 01:53:14;;;;;;;7.50;5.60;;;;;;;9.36;77.66;99231.88;88403;1271;98256;-69
2022/04/25 01:55:23;;;;;;;5.50;4.90;;;;;;;9.31;77.79;99228.36;88379;1271;88773;-68
2022/04/25 01:57:33;;;;;;;7.20;5.70;;;;;;;9.32;77.76;99233.30;88360;1271;94970;-59
2022/04/25 01:59:42;;;;;;;6.40;5.10;;;;;;;9.30;77.80;99233.27;88386;1271;79498;-58
2022/04/25 02:01:52;;;;;;;6.10;5.20;;;;;;;9.29;77.81;99230.70;88403;1271;81146;-59
2022/04/25 02:04:01;;;;;;;5.90;5.00;;;;;;;9.30;77.77;99232.13;88285;1272;99728;-59
2022/04/25 02:06:10;;;;;;;7.20;5.50;;;;;;;9.29;77.84;99232.02;88348;1271;88428;-59
2022/04/25 02:08:19;;;;;;;6.30;5.20;;;;;;;9.29;77.93;99233.39;88340;1271;95124;-59
2022/04/25 02:10:27;;;;;;;7.90;5.80;;;;;;;9.33;77.85;99231.80;88263;1273;80577;-59
2022/04/25 02:12:36;;;;;;;6.80;5.80;;;;;;;9.30;77.99;99234.45;88325;1271;82787;-59
2022/04/25 02:14:46;;;;;;;6.60;5.60;;;;;;;9.30;78.02;99232.77;88328;1271;98319;-59
2022/04/25 02:16:55;;;;;;;7.40;5.90;;;;;;;9.28;78.03;99232.06;88276;1271;88573;-68
2022/04/25 02:19:03;;;;;;;6.30;5.30;;;;;;;9.30;78.05;99231.18;88245;1273;94984;-68
2022/04/25 02:21:12;;;;;;;7.00;6.20;;;;;;;9.31;77.99;99228.04;88304;1271;81271;-69
2022/04/25 02:23:21;;;;;;;5.90;5.30;;;;;;;9.28;78.16;99227.25;88287;1271;81545;-59
2022/04/25 02:25:30;;;;;;;8.30;6.00;;;;;;;9.29;78.17;99225.87;88261;1274;97411;-59
2022/04/25 02:27:42;;;;;;;6.50;5.80;;;;;;;9.27;78.26;99225.80;88333;1271;87971;-59
2022/04/25 02:29:58;;;;;;;6.30;5.60;;;;;;;9.23;78.32;99221.00;88311;1271;93436;-59
2022/04/25 02:32:12;;;;;;;6.40;5.70;;;;;;;9.22;78.29;99223.08;88293;1271;79901;-67
2022/04/25 02:34:22;;;;;;;7.10;6.00;;;;;;;9.23;78.35;99222.04;88322;1271;80854;-67
2022/04/25 02:36:31;;;;;;;7.40;6.50;;;;;;;9.22;78.37;99220.41;88281;1274;99090;-68
2022/04/25 02:38:43;;;;;;;6.80;5.60;;;;;;;9.22;78.53;99223.45;88337;1271;88217;-58
2022/04/25 02:41:05;;;;;;;8.50;6.70;;;;;;;9.20;78.66;99226.02;88328;1271;95034;-59
2022/04/25 02:43:17;;;;;;;7.90;5.60;;;;;;;9.21;78.72;99224.49;88312;1271;79810;-68
2022/04/25 02:45:26;;;;;;;6.30;5.70;;;;;;;9.17;78.72;99225.27;88313;1271;80326;-68
2022/04/25 02:47:34;;;;;;;7.70;6.10;;;;;;;9.18;78.68;99227.73;88309;1271;99337;-68
2022/04/25 02:49:43;;;;;;;7.80;6.40;;;;;;;9.20;78.88;99227.46;88218;1274;88985;-67
2022/04/25 02:51:55;;;;;;;8.60;6.70;;;;;;;9.17;78.88;99229.30;88244;1274;94339;-68
2022/04/25 02:54:04;;;;;;;7.80;6.20;;;;;;;9.18;78.96;99230.13;88261;1274;82584;-68
2022/04/25 02:56:13;;;;;;;8.30;6.20;;;;;;;9.19;78.76;99222.91;88265;1273;83062;-68
2022/04/25 02:58:23;;;;;;;6.20;5.30;;;;;;;9.22;78.91;99227.01;88267;1274;97596;-59
2022/04/25 03:00:32;;;;;;;9.30;6.30;;;;;;;9.24;78.98;99224.43;88243;1274;88461;-59
2022/04/25 03:02:44;;;;;;;9.70;6.60;;;;;;;9.25;78.93;99225.80;88280;1271;95372;-59
2022/04/25 03:04:53;;;;;;;8.00;6.10;;;;;;;9.21;78.98;99226.18;88270;1271;81508;-60
2022/04/25 03:07:02;;;;;;;7.20;6.50;;;;;;;9.22;78.99;99224.28;88322;1271;82825;-59
2022/04/25 03:09:11;;;;;;;7.30;6.10;;;;;;;9.23;79.08;99228.63;88302;1271;99648;-59
2022/04/25 03:11:19;;;;;;;8.00;6.20;;;;;;;9.25;79.04;99229.62;88314;1271;88059;-59
2022/04/25 03:13:34;;;;;;;7.00;6.10;;;;;;;9.22;79.06;99232.77;88299;1271;95450;-59
2022/04/25 03:15:46;;;;;;;7.60;6.30;;;;;;;9.15;79.19;99240.08;88308;1271;82242;-58
2022/04/25 03:17:56;;;;;;;8.40;6.40;;;;;;;9.16;79.18;99239.86;88322;1271;81897;-67
2022/04/25 03:20:07;;;;;;;6.80;5.90;;;;;;;9.18;79.20;99242.52;88272;1271;97715;-68
2022/04/25 03:22:17;;;;;;;6.30;5.60;;;;;;;9.17;79.29;99240.27;88347;1271;88414;-59
2022/04/25 03:24:26;;;;;;;6.40;5.30;;;;;;;9.15;79.21;99241.98;88320;1271;96067;-60
2022/04/25 03:26:41;;;;;;;5.70;5.10;;;;;;;9.15;79.30;99241.85;88294;1271;79812;-65
2022/04/25 03:28:51;;;;;;;6.20;5.60;;;;;;;9.15;79.28;99242.72;88301;1271;83091;-59
2022/04/25 03:31:00;;;;;;;6.60;5.50;;;;;;;9.17;79.54;99248.20;88279;1271;100258;-60
2022/04/25 03:33:11;;;;;;;6.30;5.20;;;;;;;9.17;79.56;99248.16;88254;1271;88708;-69
2022/04/25 03:35:22;;;;;;;5.70;5.10;;;;;;;9.18;79.43;99243.05;88306;1271;95916;-67
2022/04/25 03:37:32;;;;;;;5.70;5.10;;;;;;;9.16;79.32;99245.05;88308;1271;80851;-59
2022/04/25 03:39:41;;;;;;;7.10;5.40;;;;;;;9.11;79.51;99240.61;88300;1271;82200;-58
2022/04/25 03:41:50;;;;;;;5.70;5.20;;;;;;;9.11;79.54;99240.29;88295;1271;99377;-67
2022/04/25 03:43:59;;;;;;;5.80;4.90;;;;;;;9.11;79.51;99241.69;88326;1271;88575;-68
2022/04/25 03:46:08;;;;;;;5.60;5.00;;;;;;;9.12;79.35;99238.70;87763;1271;690065;-68
2022/04/25 03:48:17;;;;;;;5.90;5.30;;;;;;;9.07;79.44;99240.91;88308;1271;79620;-59
2022/04/25 03:50:26;;;;;;;7.50;5.50;;;;;;;9.08;79.51;99242.97;88301;1271;80228;-59
2022/04/25 03:52:34;;;;;;;6.10;5.50;;;;;;;9.09;79.53;99242.77;88284;1271;99256;-68
2022/04/25 03:57:14;;;;;;;6.70;5.20;;;;;;;9.12;79.40;99247.95;88266;1271;96010;-59
2022/04/25 03:59:26;;;;;;;6.70;5.70;;;;;;;9.15;79.45;99253.00;88282;1271;81444;-59
2022/04/25 04:01:36;;;;;;;5.90;5.30;;;;;;;9.18;79.49;99256.61;88283;1271;82339;-61
2022/04/25 04:03:45;;;;;;;5.90;5.30;;;;;;;9.22;79.36;99256.45;88297;1271;97680;-68
2022/04/25 04:05:57;;;;;;;8.10;5.80;;;;;;;9.25;79.36;99255.31;88279;1271;88079;-68
2022/04/25 04:08:07;;;;;;;6.40;5.80;;;;;;;9.18;79.46;99258.28;88282;1271;93814;-59
2022/04/25 04:10:20;;;;;;;6.50;5.80;;;;;;;9.16;79.52;99258.35;88283;1271;82201;-59
2022/04/25 04:12:32;;;;;;;6.90;5.30;;;;;;;9.16;79.46;99261.73;88302;1271;82279;-70
2022/04/25 04:14:42;;;;;;;5.80;5.20;;;;;;;9.16;79.51;99265.77;88192;1274;100657;-68
2022/04/25 04:16:54;;;;;;;7.80;5.60;;;;;;;9.18;79.39;99264.20;88305;1271;87237;-67
2022/04/25 04:19:06;;;;;;;5.90;5.20;;;;;;;9.21;79.40;99266.42;88263;1271;95756;-69
2022/04/25 04:21:18;;;;;;;7.40;6.10;;;;;;;9.24;79.39;99269.71;88288;1271;80831;-68
2022/04/25 04:23:29;;;;;;;6.00;5.40;;;;;;;9.21;79.42;99269.53;88312;1271;80778;-59
2022/04/25 04:25:41;;;;;;;6.30;5.70;;;;;;;9.18;79.49;99273.56;88279;1271;99564;-59
2022/04/25 04:27:50;;;;;;;6.80;5.90;;;;;;;9.16;79.59;99277.17;88286;1271;88005;-66
2022/04/25 04:30:05;;;;;;;6.30;5.70;;;;;;;9.19;79.51;99278.83;88293;1271;94989;-67
2022/04/25 04:32:15;;;;;;;8.00;5.90;;;;;;;9.22;79.64;99281.98;88263;1271;82099;-59
2022/04/25 04:34:26;;;;;;;6.50;5.80;;;;;;;9.17;79.47;99285.67;88282;1271;83472;-59
2022/04/25 04:36:36;;;;;;;6.90;6.20;;;;;;;9.20;79.57;99288.03;88293;1271;100197;-64
2022/04/25 04:38:45;;;;;;;6.50;5.50;;;;;;;9.20;79.48;99288.23;88301;1271;88191;-69
2022/04/25 04:40:54;;;;;;;6.10;5.50;;;;;;;9.21;79.58;99292.14;88288;1271;95446;-68
2022/04/25 04:43:03;;;;;;;9.50;6.50;;;;;;;9.21;79.69;99291.77;88293;1271;82488;-58
2022/04/25 04:45:16;;;;;;;6.10;5.40;;;;;;;9.20;79.69;99295.90;88321;1271;82235;-60
2022/04/25 04:47:31;;;;;;;6.80;6.10;;;;;;;9.22;79.60;99301.63;88311;1271;99859;-59
2022/04/25 04:49:40;;;;;;;6.80;6.10;;;;;;;9.20;79.57;99300.05;88303;1271;88817;-57
2022/04/25 04:51:49;;;;;;;8.40;6.50;;;;;;;9.21;79.62;99306.73;88305;1271;94813;-60
2022/04/25 04:54:00;;;;;;;7.00;6.30;;;;;;;9.18;79.66;99306.43;88274;1271;80105;-60
2022/04/25 04:56:12;;;;;;;8.10;6.30;;;;;;;9.23;79.70;99307.52;88298;1271;81287;-59
2022/04/25 04:58:24;;;;;;;7.30;6.30;;;;;;;9.24;79.67;99307.48;88293;1271;99409;-59
2022/04/25 05:00:33;;;;;;;7.40;6.70;;;;;;;9.25;79.66;99309.70;88289;1271;87745;-60
2022/04/25 05:02:45;;;;;;;7.30;6.50;;;;;;;9.26;79.63;99307.96;88308;1271;94523;-58
2022/04/25 05:04:54;;;;;;;7.40;6.40;;;;;;;9.28;79.76;99308.93;88304;1271;79137;-59
2022/04/25 05:07:07;;;;;;;7.50;6.80;;;;;;;9.29;79.70;99306.31;88293;1271;80983;-59
2022/04/25 05:09:16;;;;;;;7.40;6.70;;;;;;;9.30;79.82;99309.09;88303;1271;99575;-60
2022/04/25 05:11:30;;;;;;;8.70;7.10;;;;;;;9.29;79.81;99308.52;88295;1271;87585;-60
2022/04/25 05:13:39;;;;;;;7.80;6.30;;;;;;;9.31;79.85;99307.43;88295;1271;96444;-62
2022/04/25 05:15:48;;;;;;;8.20;7.30;;;;;;;9.29;79.84;99311.41;88304;1271;81613;-61
2022/04/25 05:17:59;;;;;;;7.80;7.00;;;;;;;9.31;79.77;99312.25;88245;1274;81545;-60
2022/04/25 05:20:13;;;;;;;7.70;6.90;;;;;;;9.30;79.79;99313.02;88241;1274;99650;-59
2022/04/25 05:22:22;;;;;;;7.70;6.90;;;;;;;9.33;79.95;99318.33;88318;1271;89178;-64
2022/04/25 05:24:31;;;;;;;7.90;7.10;;;;;;;9.34;79.94;99315.36;88315;1271;92798;-64
2022/04/25 05:26:41;;;;;;;8.40;7.40;;;;;;;9.31;79.94;99317.58;88268;1271;79898;-59
2022/04/25 05:28:53;;;;;;;8.00;7.20;;;;;;;9.28;80.08;99314.36;88355;1271;82125;-60
2022/04/25 05:31:02;;;;;;;8.50;6.90;;;;;;;9.32;80.13;99315.52;88298;1271;99524;-60
2022/04/25 05:33:15;;;;;;;8.70;6.80;;;;;;;9.29;80.16;99318.00;88299;1271;88555;-65
2022/04/25 05:35:29;;;;;;;7.30;6.50;;;;;;;9.30;80.17;99317.88;88296;1271;94056;-64
2022/04/25 05:37:38;;;;;;;7.90;6.90;;;;;;;9.32;80.11;99318.53;88325;1271;79404;-62
2022/04/25 05:39:50;;;;;;;10.50;7.00;;;;;;;9.32;80.17;99320.40;88262;1274;80480;-59
2022/04/25 05:41:59;;;;;;;18.10;8.00;;;;;;;9.32;80.21;99318.84;88305;1271;99297;-63
2022/04/25 05:44:12;;;;;;;12.80;7.50;;;;;;;9.27;80.27;99319.04;88277;1271;87410;-63
2022/04/25 05:46:25;;;;;;;9.30;7.30;;;;;;;9.26;80.41;99317.14;88294;1271;93887;-64
2022/04/25 05:53:29;;;;;;;11.90;7.30;;;;;;;9.32;80.41;99324.26;88285;1271;100534;-64
2022/04/25 05:55:42;;;;;;;9.80;7.20;;;;;;;9.31;80.49;99327.42;88279;1271;88781;-63
2022/04/25 05:57:51;;;;;;;7.30;6.20;;;;;;;9.34;80.43;99328.08;88283;1271;93547;-61
2022/04/25 05:59:59;;;;;;;7.00;6.30;;;;;;;9.36;80.49;99331.64;88270;1271;80097;-59
2022/04/25 06:02:08;;;;;;;12.00;7.00;;;;;;;9.38;80.38;99332.77;88241;1274;82480;-59
2022/04/25 06:04:18;;;;;;;9.80;6.90;;;;;;;9.34;80.41;99338.15;88284;1271;99762;-59
2022/04/25 06:06:27;;;;;;;10.90;7.20;;;;;;;9.30;80.53;99339.48;88306;1271;87941;-59
2022/04/25 06:13:56;;;;;;;9.70;7.10;;;;;;;9.39;80.55;99342.17;88325;1269;83096;-66
2022/04/25 06:16:06;;;;;;;15.60;8.00;;;;;;;9.37;80.61;99342.27;87782;1282;100072;-67
2022/04/25 06:18:16;;;;;;;12.30;7.10;;;;;;;9.35;80.67;99349.19;87795;1282;88600;-66
2022/04/25 06:20:30;;;;;;;18.90;8.40;;;;;;;9.36;80.56;99352.20;87764;1282;94119;-65
2022/04/25 06:22:40;;;;;;;16.20;8.70;;;;;;;9.39;80.72;99352.05;87774;1282;80024;-60
2022/04/25 06:24:49;;;;;;;24.60;9.70;;;;;;;9.45;80.67;99351.13;87754;1284;82800;-59
2022/04/25 06:26:58;;;;;;;16.60;8.40;;;;;;;9.53;80.56;99352.13;87766;1283;98678;-58
2022/04/25 06:29:07;;;;;;;7.80;6.70;;;;;;;9.54;80.78;99352.46;87730;1284;88712;-58
2022/04/25 06:31:16;;;;;;;7.90;7.10;;;;;;;9.56;80.65;99354.45;87765;1284;93374;-64
2022/04/25 06:33:26;;;;;;;7.50;6.70;;;;;;;9.59;80.54;99355.85;87760;1284;80460;-64
2022/04/25 06:35:36;;;;;;;8.60;7.00;;;;;;;9.66;80.54;99358.91;87764;1284;81012;-63
2022/04/25 06:37:45;;;;;;;7.50;6.80;;;;;;;9.70;80.51;99357.46;87744;1284;99144;-63
2022/04/25 06:39:54;;;;;;;7.30;6.60;;;;;;;9.73;80.38;99359.75;87739;1284;89604;-65
2022/04/25 06:42:03;;;;;;;6.80;6.10;;;;;;;9.72;80.45;99363.73;87732;1284;95798;-59
2022/04/25 06:44:12;;;;;;;7.70;7.00;;;;;;;9.77;80.43;99361.93;87738;1284;80947;-65
2022/04/25 06:46:24;;;;;;;8.20;6.70;;;;;;;9.82;80.39;99360.44;87769;1284;83555;-65
2022/04/25 06:48:36;;;;;;;7.40;6.60;;;;;;;9.88;80.25;99357.44;87739;1284;98337;-69
2022/04/25 06:50:45;;;;;;;9.40;6.60;;;;;;;9.89;80.35;99356.90;87729;1284;88940;-66
2022/04/25 06:52:54;;;;;;;7.20;6.50;;;;;;;9.89;80.32;99360.64;87751;1284;94944;-60
2022/04/25 06:55:07;;;;;;;7.00;6.40;;;;;;;9.93;80.17;99360.75;87712;1284;79382;-59
2022/04/25 06:57:20;;;;;;;9.70;7.50;;;;;;;9.95;80.17;99356.55;87720;1284;83186;-59
2022/04/25 06:59:29;;;;;;;7.90;6.60;;;;;;;9.91;80.29;99363.41;87702;1284;100043;-60
2022/04/25 07:01:39;;;;;;;7.40;6.60;;;;;;;9.88;80.39;99366.77;87730;1284;87863;-60
2022/04/25 07:03:47;;;;;;;7.80;6.90;;;;;;;9.86;80.14;99366.00;87726;1284;95771;-65
2022/04/25 07:06:00;;;;;;;7.70;6.90;;;;;;;9.83;80.32;99371.52;87691;1284;80475;-65
2022/04/25 07:08:12;;;;;;;10.50;7.50;;;;;;;9.85;80.29;99373.05;87737;1284;82606;-65
2022/04/25 07:10:21;;;;;;;8.40;6.70;;;;;;;9.83;80.31;99375.08;87749;1284;99844;-66
2022/04/25 07:12:36;;;;;;;9.20;6.90;;;;;;;9.82;80.37;99377.04;87706;1284;89393;-65
2022/04/25 07:14:46;;;;;;;8.20;7.00;;;;;;;9.77;80.32;99378.75;87774;1282;94744;-59
2022/04/25 07:16:59;;;;;;;6.80;6.10;;;;;;;9.78;80.27;99384.05;87772;1282;82115;-59
2022/04/25 07:19:09;;;;;;;7.20;6.30;;;;;;;9.80;80.14;99385.96;87745;1282;83269;-64
2022/04/25 07:28:53;;;;;;;9.00;7.00;;;;;;;9.76;80.22;99391.15;87789;1282;81571;-59
2022/04/25 07:31:03;;;;;;;6.90;6.10;;;;;;;9.85;80.08;99398.61;87716;1284;81367;-59
2022/04/25 07:33:12;;;;;;;7.30;6.60;;;;;;;9.93;80.04;99396.20;87776;1282;99313;-66
2022/04/25 07:35:22;;;;;;;6.60;6.00;;;;;;;9.98;79.98;99397.59;87829;1282;89508;-66
2022/04/25 07:37:33;;;;;;;6.20;5.60;;;;;;;10.00;79.94;99399.46;87783;1282;95398;-62
2022/04/25 07:39:46;;;;;;;7.10;6.40;;;;;;;9.99;80.03;99399.09;87735;1282;82627;-64
2022/04/25 07:41:58;;;;;;;7.00;6.30;;;;;;;10.01;79.95;99400.50;87805;1282;81567;-64
2022/04/25 07:44:11;;;;;;;6.70;6.00;;;;;;;10.02;79.89;99405.02;87814;1282;97896;-61
2022/04/25 07:46:25;;;;;;;6.80;6.10;;;;;;;10.01;79.86;99407.14;87788;1282;87565;-60
2022/04/25 07:48:35;;;;;;;7.90;6.10;;;;;;;10.06;79.83;99408.80;87765;1282;95748;-63
2022/04/25 07:50:45;;;;;;;7.60;6.30;;;;;;;10.07;79.72;99406.46;87781;1282;80529;-63
2022/04/25 07:52:54;;;;;;;7.60;6.00;;;;;;;10.08;79.68;99409.91;87800;1282;83058;-65
2022/04/25 07:55:04;;;;;;;6.60;6.00;;;;;;;10.08;79.71;99417.42;87826;1282;99852;-68
2022/04/25 07:57:13;;;;;;;6.90;6.20;;;;;;;10.00;79.70;99416.94;87819;1282;87568;-65
2022/04/25 07:59:23;;;;;;;6.50;5.80;;;;;;;9.96;79.83;99416.98;87775;1282;95899;-57
2022/04/25 08:01:32;;;;;;;6.10;5.50;;;;;;;9.99;79.79;99421.84;87806;1282;81248;-59
2022/04/25 08:03:45;;;;;;;5.60;5.00;;;;;;;9.88;79.92;99422.77;87796;1282;84092;-67
2022/04/25 08:05:57;;;;;;;8.60;5.90;;;;;;;9.88;79.86;99422.07;87797;1282;98178;-68
2022/04/25 08:08:10;;;;;;;6.10;5.50;;;;;;;9.88;79.93;99426.16;87729;1284;88338;-59
2022/04/25 08:10:20;;;;;;;5.50;4.90;;;;;;;9.89;80.03;99426.20;87811;1282;95686;-60
2022/04/25 08:19:58;;;;;;;6.00;5.40;;;;;;;9.98;80.08;99434.84;87821;1282;90104;-66
2022/04/25 08:22:11;;;;;;;6.80;5.70;;;;;;;10.02;80.11;99439.19;87711;1284;95877;-68
2022/04/25 08:24:20;;;;;;;6.50;5.30;;;;;;;10.02;80.24;99439.36;87787;1282;82902;-67
2022/04/25 08:26:30;;;;;;;6.50;5.90;;;;;;;10.09;80.26;99441.35;87801;1282;83503;-66
2022/04/25 08:28:40;;;;;;;6.20;5.60;;;;;;;10.14;80.15;99439.53;87688;1284;98801;-60
2022/04/25 08:30:50;;;;;;;6.00;5.00;;;;;;;10.11;80.33;99441.47;87797;1282;87563;-60
2022/04/25 08:32:59;;;;;;;6.90;5.40;;;;;;;10.17;80.04;99445.38;87711;1284;95335;-67
2022/04/25 08:35:11;;;;;;;8.30;5.70;;;;;;;10.25;80.10;99446.91;87800;1282;81495;-67
2022/04/25 08:37:23;;;;;;;6.80;5.90;;;;;;;10.28;80.17;99448.27;87810;1282;81938;-68
2022/04/25 08:39:34;;;;;;;6.10;5.50;;;;;;;10.31;80.09;99453.16;87772;1282;99770;-61
2022/04/25 08:41:51;;;;;;;6.30;5.70;;;;;;;10.34;80.14;99451.51;87785;1282;89185;-61
2022/04/25 08:44:02;;;;;;;6.00;5.50;;;;;;;10.39;80.09;99452.99;87819;1282;93900;-60
2022/04/25 08:46:14;;;;;;;5.90;5.30;;;;;;;10.41;80.15;99452.64;87810;1282;78704;-60
2022/04/25 08:48:25;;;;;;;5.60;5.10;;;;;;;10.45;80.12;99456.13;87852;1282;81096;-67
2022/04/25 08:50:41;;;;;;;6.50;5.00;;;;;;;10.42;80.10;99457.80;87797;1282;98390;-68
2022/04/25 08:52:51;;;;;;;6.20;5.50;;;;;;;10.42;79.96;99456.06;87791;1282;87850;-59
2022/04/25 08:55:04;;;;;;;6.70;5.30;;;;;;;10.49;80.06;99460.10;87800;1282;95237;-59
2022/04/25 08:57:16;;;;;;;6.10;5.50;;;;;;;10.51;80.00;99454.33;87802;1280;78916;-60
2022/04/25 08:59:31;;;;;;;6.10;5.50;;;;;;;10.56;80.00;99454.10;87739;1282;83467;-60
2022/04/25 09:01:41;;;;;;;5.70;5.10;;;;;;;10.67;79.94;99453.79;87783;1282;99664;-70
2022/04/25 09:03:50;;;;;;;6.10;5.30;;;;;;;10.73;79.76;99454.66;87805;1282;88547;-59
2022/04/25 09:05:59;;;;;;;6.50;5.40;;;;;;;10.86;79.78;99453.01;87763;1282;94598;-59
2022/04/25 09:08:12;;;;;;;7.30;5.60;;;;;;;11.03;79.81;99457.96;87700;1284;81736;-59
2022/04/25 09:10:22;;;;;;;6.60;4.90;;;;;;;11.13;79.85;99458.95;87822;1282;80848;-59
2022/04/25 09:12:34;;;;;;;7.30;5.20;;;;;;;11.30;79.88;99460.65;87771;1282;97386;-65
2022/04/25 09:14:45;;;;;;;5.40;4.60;;;;;;;11.51;79.63;99460.69;87765;1282;88826;-70
2022/04/25 09:16:54;;;;;;;4.30;3.90;;;;;;;11.71;79.42;99466.57;87812;1282;94898;-68
2022/04/25 09:19:03;;;;;;;6.60;4.40;;;;;;;11.91;79.18;99469.40;87751;1282;79809;-60
2022/04/25 09:21:15;;;;;;;5.70;4.40;;;;;;;11.96;78.86;99473.79;87817;1282;80282;-64
2022/04/25 09:23:27;;;;;;;5.10;4.10;;;;;;;11.93;78.55;99479.30;87721;1283;99801;-64
2022/04/25 09:25:36;;;;;;;4.20;3.80;;;;;;;12.00;78.16;99482.65;87774;1282;88540;-67
2022/04/25 09:27:48;;;;;;;4.30;3.90;;;;;;;12.01;77.72;99486.48;87784;1282;94081;-61
2022/04/25 09:30:15;;;;;;;4.00;3.50;;;;;;;12.09;77.54;99482.09;87786;1282;79189;-59
2022/04/25 09:32:35;;;;;;;5.20;3.80;;;;;;;12.10;77.32;99481.21;87823;1282;81726;-60
2022/04/25 09:37:15;;;;;;;8.00;5.10;;;;;;;11.95;76.88;99487.36;87056;1289;87813;-65
2022/04/25 09:39:32;;;;;;;4.90;4.00;;;;;;;11.95;76.72;99488.61;87021;1289;94711;-70
2022/04/25 09:41:47;;;;;;;4.40;3.50;;;;;;;12.01;76.70;99487.12;87365;1282;80416;-67
2022/04/25 09:44:02;;;;;;;5.40;3.90;;;;;;;12.07;76.45;99490.56;87824;1282;83139;-68
2022/04/25 09:46:16;;;;;;;3.70;3.10;;;;;;;12.09;76.46;99492.50;87766;1282;99461;-71
2022/04/25 09:48:25;;;;;;;3.90;3.40;;;;;;;11.99;76.36;99497.02;87672;1284;88368;-68
2022/04/25 09:50:38;;;;;;;4.00;3.60;;;;;;;11.93;76.38;99501.73;87789;1282;94699;-56
2022/04/25 09:52:58;;;;;;;4.20;3.40;;;;;;;11.77;76.52;99500.45;87760;1282;78576;-58
2022/04/25 09:55:17;;;;;;;6.70;3.60;;;;;;;11.71;76.59;99508.02;87816;1282;82836;-68
2022/04/25 09:57:35;;;;;;;4.00;3.50;;;;;;;11.72;76.70;99506.27;87790;1282;98790;-59
2022/04/25 09:59:56;;;;;;;4.70;3.80;;;;;;;11.75;76.52;99508.41;87783;1282;87935;-69
2022/04/25 10:02:09;;;;;;;4.00;3.60;;;;;;;11.86;76.43;99511.96;87807;1282;94376;-59
2022/04/25 10:04:36;;;;;;;4.80;3.80;;;;;;;11.82;76.28;99508.92;87803;1282;78239;-69
2022/04/25 10:09:37;;;;;;;4.60;4.20;;;;;;;11.62;76.34;99511.79;86137;1281;937018;-70
2022/04/25 10:11:48;;;;;;;5.60;3.90;;;;;;;11.54;76.31;99519.05;87973;1281;88869;-67
2022/04/25 10:13:58;;;;;;;5.30;4.30;;;;;;;11.53;76.14;99519.59;88011;1280;93265;-69
2022/04/25 10:16:07;;;;;;;4.70;3.70;;;;;;;11.56;75.97;99521.28;87952;1281;79699;-68
2022/04/25 10:18:18;;;;;;;5.10;4.10;;;;;;;11.62;75.94;99522.83;87988;1280;82432;-59
2022/04/25 10:20:27;;;;;;;5.60;4.50;;;;;;;11.73;75.86;99522.41;87977;1281;98670;-60
2022/04/25 10:22:40;;;;;;;6.90;4.20;;;;;;;11.91;75.81;99522.33;87979;1280;87646;-59
2022/04/25 10:24:52;;;;;;;6.70;4.80;;;;;;;12.02;75.69;99525.39;87992;1281;95415;-68
2022/04/25 10:27:12;;;;;;;6.70;4.30;;;;;;;12.08;75.44;99525.58;87983;1281;79766;-68
2022/04/25 10:29:26;;;;;;;5.60;4.10;;;;;;;12.12;75.15;99527.45;87988;1281;81051;-69
2022/04/25 10:31:41;;;;;;;7.70;5.60;;;;;;;12.06;74.91;99524.72;87973;1281;99320;-68
2022/04/25 10:33:58;;;;;;;5.90;5.00;;;;;;;12.11;74.88;99525.14;87973;1281;87924;-68
2022/04/25 10:36:07;;;;;;;13.30;5.10;;;;;;;12.10;74.46;99527.65;87952;1280;94737;-68
2022/04/25 10:38:49;;;;;;;5.40;4.10;;;;;;;11.99;74.35;99528.27;87971;1281;81322;-68
2022/04/25 10:46:02;;;;;;;5.70;4.20;;;;;;;12.00;74.34;99530.88;87977;1281;86714;-59
2022/04/25 10:48:13;;;;;;;6.70;4.20;;;;;;;12.16;74.22;99535.17;87962;1281;94800;-68
2022/04/25 10:50:22;;;;;;;6.20;3.90;;;;;;;12.26;74.07;99535.99;87956;1281;82505;-69
2022/04/25 10:52:54;;;;;;;4.80;3.70;;;;;;;12.33;73.60;99540.29;88000;1280;81750;-68
2022/04/25 10:55:19;;;;;;;6.30;4.10;;;;;;;12.25;73.28;99541.59;87959;1281;99067;-69
2022/04/25 10:57:29;;;;;;;5.30;4.70;;;;;;;12.19;73.25;99543.82;87985;1281;88317;-68
2022/04/25 10:59:40;;;;;;;5.00;4.50;;;;;;;12.21;73.41;99545.10;87981;1281;93843;-61
2022/04/25 11:01:50;;;;;;;5.70;4.10;;;;;;;12.28;73.33;99545.53;87979;1281;78536;-60
2022/04/25 11:04:14;;;;;;;7.00;4.30;;;;;;;12.37;73.19;99549.83;88004;1281;81509;-60